Terminal Aerodrome Forecast
Issued by NWS

Home | Current Version | Previous Version | Graphics & Text | Print | Product List | Glossary On
Versions: 1 2 3 4 5 6 7 8 9 10 11 12 13 14 15
000
FTUS42 KMHX 152300
TAFISO
TAF
KISO 152323Z 1600/1624 VRB03KT P6SM SCT250
      TEMPO 1606/1608 3SM BR
     FM160800 00000KT 2SM BR BKN010
     FM161300 21006KT P6SM SCT040
     FM161900 21008KT P6SM VCSH BKN040
      AMD LTD TO CLD VIS AND WIND=

USA.gov is the U.S. government's official web portal to all federal, state and local government web resources and services.